Time;durP1;ratioP1;P1;durP2;ratioP2;P2;SDS_P1;SDS_P2;PMS_P1;PMS_P2;Temp;Humidity;BMP_temperature;BMP_pressure;BME280_temperature;BME280_humidity;BME280_pressure;Samples;Min_cycle;Max_cycle;Signal;HPM_P1;HPM_P2
2023/12/06 00:01:04;;;;;;;32.30;17.73;;;;;;;;;;5064137;28;20029;-81
2023/12/06 00:03:29;;;;;;;31.30;17.33;;;;;;;;;;5063569;28;20691;-81
2023/12/06 00:05:54;;;;;;;33.33;18.42;;;;;;;;;;5062732;28;20694;-80
2023/12/06 00:08:21;;;;;;;30.92;17.23;;;;;;;;;;5059790;28;20082;-81
2023/12/06 00:10:47;;;;;;;31.00;17.02;;;;;;;;;;5066934;28;20033;-81
2023/12/06 00:13:13;;;;;;;33.65;17.42;;;;;;;;;;5061085;28;20110;-81
2023/12/06 00:15:40;;;;;;;28.05;15.75;;;;;;;;;;5064017;28;20575;-81
2023/12/06 00:18:06;;;;;;;31.40;18.05;;;;;;;;;;5061323;28;20389;-85
2023/12/06 00:20:31;;;;;;;28.52;17.05;;;;;;;;;;5059362;28;20028;-85
2023/12/06 00:22:57;;;;;;;34.45;18.90;;;;;;;;;;5060479;28;20032;-86
2023/12/06 00:25:22;;;;;;;34.72;18.17;;;;;;;;;;5064525;28;20478;-86
2023/12/06 00:27:48;;;;;;;36.80;19.05;;;;;;;;;;5064358;28;20040;-85
2023/12/06 00:30:13;;;;;;;34.55;17.52;;;;;;;;;;5069470;28;20108;-85
2023/12/06 00:32:39;;;;;;;33.92;18.08;;;;;;;;;;5068000;28;20478;-85
2023/12/06 00:35:06;;;;;;;31.42;17.83;;;;;;;;;;5064420;28;20116;-85
2023/12/06 00:37:32;;;;;;;32.83;18.02;;;;;;;;;;5060281;28;20039;-85
2023/12/06 00:39:57;;;;;;;33.47;18.00;;;;;;;;;;5062226;28;20025;-84
2023/12/06 00:42:23;;;;;;;35.58;18.38;;;;;;;;;;5065710;28;20437;-85
2023/12/06 00:44:48;;;;;;;35.05;17.17;;;;;;;;;;5067175;28;20029;-85
2023/12/06 00:47:14;;;;;;;31.60;17.45;;;;;;;;;;5071030;28;20118;-85
2023/12/06 00:49:39;;;;;;;30.92;16.85;;;;;;;;;;5065940;28;20021;-85
2023/12/06 00:52:05;;;;;;;30.80;17.58;;;;;;;;;;5071145;28;20020;-83
2023/12/06 00:54:30;;;;;;;32.20;17.30;;;;;;;;;;5070028;28;20020;-85
2023/12/06 00:56:55;;;;;;;35.05;18.70;;;;;;;;;;5068456;28;20029;-86
2023/12/06 00:59:21;;;;;;;31.15;17.65;;;;;;;;;;5068293;28;20036;-85
2023/12/06 01:01:46;;;;;;;33.88;18.02;;;;;;;;;;5063316;28;20391;-85
2023/12/06 01:04:12;;;;;;;29.83;16.23;;;;;;;;;;5064265;28;20021;-85
2023/12/06 01:06:37;;;;;;;33.45;18.20;;;;;;;;;;5065282;28;20024;-84
2023/12/06 01:09:03;;;;;;;32.42;16.98;;;;;;;;;;5067839;28;20460;-85
2023/12/06 01:11:29;;;;;;;32.72;17.83;;;;;;;;;;5071325;28;20086;-85
2023/12/06 01:13:54;;;;;;;35.50;18.70;;;;;;;;;;5065735;28;20094;-85
2023/12/06 01:16:20;;;;;;;33.70;17.27;;;;;;;;;;5066711;28;20095;-86
2023/12/06 01:18:45;;;;;;;30.80;16.25;;;;;;;;;;5060882;28;20033;-85
2023/12/06 01:21:11;;;;;;;34.30;17.73;;;;;;;;;;5069678;28;20474;-85
2023/12/06 01:23:36;;;;;;;33.08;17.83;;;;;;;;;;5070259;28;20028;-85
2023/12/06 01:26:02;;;;;;;33.35;17.50;;;;;;;;;;5069128;28;20465;-85
2023/12/06 01:28:27;;;;;;;33.50;16.92;;;;;;;;;;5068088;28;20069;-81
2023/12/06 01:30:53;;;;;;;32.80;17.77;;;;;;;;;;5062980;28;20399;-82
2023/12/06 01:33:18;;;;;;;34.95;18.00;;;;;;;;;;5061712;28;20479;-81
2023/12/06 01:35:43;;;;;;;33.58;17.77;;;;;;;;;;5064774;28;20052;-81
2023/12/06 01:38:11;;;;;;;31.95;17.63;;;;;;;;;;5067712;28;20095;-81
2023/12/06 01:40:38;;;;;;;31.42;16.90;;;;;;;;;;5064501;28;20051;-81
2023/12/06 01:43:06;;;;;;;31.10;17.48;;;;;;;;;;5058841;28;20020;-82
2023/12/06 01:45:31;;;;;;;30.65;16.58;;;;;;;;;;5055047;28;20021;-81
2023/12/06 01:47:57;;;;;;;30.70;17.42;;;;;;;;;;5064111;28;20027;-81
2023/12/06 01:50:24;;;;;;;32.10;18.25;;;;;;;;;;5060139;28;20035;-82
2023/12/06 01:52:50;;;;;;;31.35;17.48;;;;;;;;;;5066051;28;20028;-81
2023/12/06 01:55:17;;;;;;;32.08;17.23;;;;;;;;;;5067699;28;20024;-81
2023/12/06 01:57:44;;;;;;;32.00;17.25;;;;;;;;;;5062981;28;20038;-82
2023/12/06 02:00:11;;;;;;;30.85;17.77;;;;;;;;;;5062473;28;20024;-81
2023/12/06 02:02:37;;;;;;;27.88;16.50;;;;;;;;;;5060406;28;20025;-81
2023/12/06 02:05:03;;;;;;;29.15;16.27;;;;;;;;;;5064227;28;20012;-81
2023/12/06 02:07:29;;;;;;;32.30;17.48;;;;;;;;;;5059790;28;20036;-85
2023/12/06 02:09:55;;;;;;;27.38;17.38;;;;;;;;;;5065825;28;20033;-85
2023/12/06 02:12:21;;;;;;;28.38;16.15;;;;;;;;;;5074545;28;20036;-85
2023/12/06 02:14:46;;;;;;;28.38;16.23;;;;;;;;;;5059049;28;20035;-85
2023/12/06 02:17:12;;;;;;;29.00;16.33;;;;;;;;;;5060626;28;20029;-85
2023/12/06 02:19:39;;;;;;;31.88;16.70;;;;;;;;;;5066124;28;20082;-85
2023/12/06 02:22:06;;;;;;;28.45;16.98;;;;;;;;;;5063521;28;20401;-85
2023/12/06 02:24:34;;;;;;;28.48;15.55;;;;;;;;;;5072086;28;20025;-85
2023/12/06 02:27:00;;;;;;;28.25;16.40;;;;;;;;;;5047144;28;20044;-84
2023/12/06 02:29:26;;;;;;;27.77;15.95;;;;;;;;;;5070640;28;20036;-85
2023/12/06 02:31:52;;;;;;;28.92;16.30;;;;;;;;;;5069155;28;20048;-85
2023/12/06 02:34:23;;;;;;;28.88;16.80;;;;;;;;;;5066077;28;20043;-85
2023/12/06 02:36:51;;;;;;;27.05;15.68;;;;;;;;;;5065873;28;20037;-85
2023/12/06 02:39:17;;;;;;;27.80;15.80;;;;;;;;;;5078304;28;20032;-85
2023/12/06 02:41:43;;;;;;;25.90;15.40;;;;;;;;;;5068369;28;20031;-85
2023/12/06 02:44:09;;;;;;;25.13;14.70;;;;;;;;;;5062553;28;20032;-85
2023/12/06 02:46:36;;;;;;;26.73;15.30;;;;;;;;;;5067434;28;20032;-85
2023/12/06 02:49:02;;;;;;;25.63;15.15;;;;;;;;;;5082051;28;20025;-85
2023/12/06 02:51:28;;;;;;;26.30;15.90;;;;;;;;;;5068468;28;20036;-84
2023/12/06 02:53:53;;;;;;;22.17;14.77;;;;;;;;;;5061225;28;20024;-85
2023/12/06 02:56:19;;;;;;;25.00;15.07;;;;;;;;;;5078883;28;20035;-85
2023/12/06 02:58:44;;;;;;;25.48;14.98;;;;;;;;;;5066141;28;20046;-85
2023/12/06 03:01:09;;;;;;;24.95;15.57;;;;;;;;;;5068259;28;20543;-85
2023/12/06 03:03:35;;;;;;;25.70;15.15;;;;;;;;;;5061591;28;20423;-85
2023/12/06 03:06:00;;;;;;;22.10;14.20;;;;;;;;;;5068186;28;20040;-85
2023/12/06 03:08:26;;;;;;;26.55;15.43;;;;;;;;;;5082421;28;20402;-85
2023/12/06 03:10:52;;;;;;;26.02;14.43;;;;;;;;;;5069265;28;20029;-84
2023/12/06 03:13:17;;;;;;;26.90;15.55;;;;;;;;;;5063710;28;20375;-84
2023/12/06 03:15:42;;;;;;;24.60;14.70;;;;;;;;;;5068547;28;20502;-85
2023/12/06 03:18:08;;;;;;;25.23;15.50;;;;;;;;;;5068364;28;20389;-85
2023/12/06 03:20:33;;;;;;;24.80;14.80;;;;;;;;;;5070585;28;20032;-85
2023/12/06 03:22:59;;;;;;;25.52;16.02;;;;;;;;;;5064228;28;20020;-85
2023/12/06 03:25:25;;;;;;;22.42;14.65;;;;;;;;;;5070831;28;20025;-85
2023/12/06 03:27:50;;;;;;;25.55;15.25;;;;;;;;;;5068118;28;20443;-85
2023/12/06 03:30:16;;;;;;;23.17;13.15;;;;;;;;;;5066078;28;20032;-85
2023/12/06 03:32:43;;;;;;;21.88;14.50;;;;;;;;;;5068348;28;20039;-85
2023/12/06 03:35:08;;;;;;;25.73;14.98;;;;;;;;;;5066701;28;20028;-85
2023/12/06 03:37:34;;;;;;;21.65;13.77;;;;;;;;;;5072786;28;20024;-85
2023/12/06 03:39:59;;;;;;;26.65;14.75;;;;;;;;;;5065923;28;20372;-85
2023/12/06 03:42:25;;;;;;;25.67;14.73;;;;;;;;;;5071647;28;20097;-85
2023/12/06 03:44:50;;;;;;;23.75;13.25;;;;;;;;;;5064886;28;20116;-85
2023/12/06 03:47:15;;;;;;;21.88;13.48;;;;;;;;;;5067269;28;20516;-85
2023/12/06 03:49:41;;;;;;;22.02;14.05;;;;;;;;;;5072010;28;20440;-85
2023/12/06 03:52:08;;;;;;;22.33;14.68;;;;;;;;;;5069783;28;20032;-85
2023/12/06 03:54:33;;;;;;;21.42;13.68;;;;;;;;;;5067948;28;20024;-85
2023/12/06 03:56:59;;;;;;;20.77;13.32;;;;;;;;;;5068598;28;20029;-85
2023/12/06 03:59:25;;;;;;;23.88;14.18;;;;;;;;;;5068050;28;20028;-85
2023/12/06 04:01:50;;;;;;;20.27;13.32;;;;;;;;;;5065560;28;20179;-84
2023/12/06 04:04:16;;;;;;;21.52;13.57;;;;;;;;;;5066810;28;20024;-85
2023/12/06 04:06:41;;;;;;;21.20;12.98;;;;;;;;;;5067417;28;21166;-85
2023/12/06 04:09:07;;;;;;;19.75;13.20;;;;;;;;;;5064488;28;20032;-85
2023/12/06 04:11:33;;;;;;;19.77;12.75;;;;;;;;;;5069106;28;20424;-84
2023/12/06 04:13:58;;;;;;;20.27;12.80;;;;;;;;;;5069772;28;20101;-85
2023/12/06 04:16:23;;;;;;;21.45;12.75;;;;;;;;;;5069459;28;20032;-85
2023/12/06 04:18:49;;;;;;;23.13;13.35;;;;;;;;;;5068009;28;20032;-85
2023/12/06 04:21:16;;;;;;;19.30;12.27;;;;;;;;;;5066092;28;20020;-85
2023/12/06 04:23:41;;;;;;;19.10;11.88;;;;;;;;;;5071405;28;20048;-85
2023/12/06 04:26:07;;;;;;;19.27;12.70;;;;;;;;;;5068940;28;20062;-85
2023/12/06 04:28:32;;;;;;;19.67;11.80;;;;;;;;;;5064633;28;20667;-81
2023/12/06 04:30:58;;;;;;;19.00;12.45;;;;;;;;;;5062452;28;20032;-81
2023/12/06 04:33:23;;;;;;;18.38;11.73;;;;;;;;;;5062963;28;20028;-80
2023/12/06 04:35:48;;;;;;;18.40;12.25;;;;;;;;;;5064642;28;20024;-81
2023/12/06 04:38:14;;;;;;;18.00;11.20;;;;;;;;;;5070018;28;20028;-82
2023/12/06 04:40:39;;;;;;;19.48;11.13;;;;;;;;;;5067498;28;20027;-81
2023/12/06 04:43:05;;;;;;;18.20;11.13;;;;;;;;;;5064165;28;20436;-80
2023/12/06 04:45:30;;;;;;;17.95;12.15;;;;;;;;;;5064953;28;20446;-81
2023/12/06 04:47:55;;;;;;;18.48;12.63;;;;;;;;;;5062994;28;20029;-81
2023/12/06 04:50:21;;;;;;;20.55;12.45;;;;;;;;;;5060957;28;20025;-81
2023/12/06 04:52:46;;;;;;;17.25;12.18;;;;;;;;;;5065035;28;20108;-81
2023/12/06 04:55:12;;;;;;;20.70;13.07;;;;;;;;;;5068411;28;20413;-81
2023/12/06 04:57:37;;;;;;;17.23;11.70;;;;;;;;;;5064947;28;20044;-85
2023/12/06 05:00:07;;;;;;;19.23;12.18;;;;;;;;;;5065762;28;20054;-84
2023/12/06 05:02:32;;;;;;;19.80;12.68;;;;;;;;;;5067939;28;20025;-85
2023/12/06 05:04:58;;;;;;;18.20;11.98;;;;;;;;;;5065374;28;20884;-84
2023/12/06 05:07:23;;;;;;;17.75;11.38;;;;;;;;;;5066164;28;20032;-85
2023/12/06 05:09:49;;;;;;;17.27;11.25;;;;;;;;;;5061386;28;20040;-85
2023/12/06 05:12:14;;;;;;;20.42;11.98;;;;;;;;;;5061826;28;20470;-85
2023/12/06 05:14:39;;;;;;;17.63;11.90;;;;;;;;;;5060906;28;20102;-85
2023/12/06 05:17:05;;;;;;;16.77;11.57;;;;;;;;;;5059106;28;20127;-85
2023/12/06 05:19:30;;;;;;;19.23;12.55;;;;;;;;;;5064194;28;20024;-85
2023/12/06 05:21:56;;;;;;;18.25;11.77;;;;;;;;;;5070187;28;20487;-85
2023/12/06 05:24:21;;;;;;;17.52;11.52;;;;;;;;;;5067079;28;20047;-85
2023/12/06 05:26:47;;;;;;;20.17;12.18;;;;;;;;;;5064414;28;20056;-85
2023/12/06 05:29:12;;;;;;;19.63;12.35;;;;;;;;;;5065542;28;20032;-85
2023/12/06 05:31:38;;;;;;;18.55;11.98;;;;;;;;;;5067409;28;20561;-85
2023/12/06 05:34:04;;;;;;;17.55;11.85;;;;;;;;;;5065017;28;20024;-85
2023/12/06 05:36:29;;;;;;;17.13;11.73;;;;;;;;;;5060992;28;20028;-85
2023/12/06 05:38:55;;;;;;;18.48;11.50;;;;;;;;;;5063237;28;20032;-85
2023/12/06 05:41:20;;;;;;;18.00;12.35;;;;;;;;;;5064341;28;20086;-85
2023/12/06 05:43:46;;;;;;;18.25;11.57;;;;;;;;;;5064634;28;20021;-85
2023/12/06 05:46:11;;;;;;;17.02;11.13;;;;;;;;;;5068688;28;20024;-86
2023/12/06 05:48:37;;;;;;;20.50;11.30;;;;;;;;;;5060421;28;20576;-85
2023/12/06 05:51:03;;;;;;;16.95;10.60;;;;;;;;;;5064658;28;20043;-85
2023/12/06 05:53:29;;;;;;;18.05;11.00;;;;;;;;;;5065175;28;20024;-84
2023/12/06 05:55:56;;;;;;;18.65;11.07;;;;;;;;;;5064375;28;20024;-86
2023/12/06 05:58:22;;;;;;;18.45;11.27;;;;;;;;;;5064984;28;20028;-84
2023/12/06 06:00:47;;;;;;;16.50;10.98;;;;;;;;;;5062337;28;20028;-85
2023/12/06 06:03:13;;;;;;;21.67;11.38;;;;;;;;;;5062963;28;20398;-84
2023/12/06 06:05:38;;;;;;;17.55;11.20;;;;;;;;;;5060465;28;20086;-84
2023/12/06 06:08:03;;;;;;;16.30;10.00;;;;;;;;;;5061800;28;20402;-84
2023/12/06 06:10:29;;;;;;;15.43;10.45;;;;;;;;;;5062028;28;20409;-84
2023/12/06 06:12:54;;;;;;;17.98;10.30;;;;;;;;;;5062737;28;20028;-84
2023/12/06 06:15:20;;;;;;;16.35;10.52;;;;;;;;;;5060200;28;20031;-84
2023/12/06 06:17:45;;;;;;;16.70;10.43;;;;;;;;;;5060922;28;20029;-83
2023/12/06 06:20:11;;;;;;;17.42;10.65;;;;;;;;;;5061962;28;20032;-84
2023/12/06 06:22:36;;;;;;;17.15;10.65;;;;;;;;;;5062852;28;20032;-85
2023/12/06 06:25:02;;;;;;;17.83;10.98;;;;;;;;;;5062583;28;20021;-84
2023/12/06 06:27:27;;;;;;;18.90;11.63;;;;;;;;;;5064483;28;20028;-84
2023/12/06 06:29:53;;;;;;;15.65;10.85;;;;;;;;;;5062109;28;20021;-84
2023/12/06 06:32:18;;;;;;;16.67;10.60;;;;;;;;;;5063815;28;20036;-84
2023/12/06 06:34:44;;;;;;;15.38;10.30;;;;;;;;;;5058904;28;20083;-84
2023/12/06 06:37:09;;;;;;;18.30;10.48;;;;;;;;;;5063145;28;20051;-84
2023/12/06 06:39:34;;;;;;;20.10;11.07;;;;;;;;;;5064409;28;20466;-85
2023/12/06 06:42:00;;;;;;;20.77;11.57;;;;;;;;;;5066175;28;20028;-84
2023/12/06 06:44:25;;;;;;;17.70;10.93;;;;;;;;;;5062743;28;20029;-84
2023/12/06 06:46:51;;;;;;;19.00;11.57;;;;;;;;;;5068421;28;20383;-81
2023/12/06 06:49:16;;;;;;;15.43;10.63;;;;;;;;;;5065178;28;20025;-81
2023/12/06 06:51:41;;;;;;;18.42;10.57;;;;;;;;;;5063274;28;20050;-81
2023/12/06 06:54:07;;;;;;;16.80;10.75;;;;;;;;;;5065246;28;20433;-81
2023/12/06 06:56:33;;;;;;;15.35;9.95;;;;;;;;;;5062104;28;20457;-81
2023/12/06 06:59:01;;;;;;;20.77;11.15;;;;;;;;;;5064901;28;20037;-81
2023/12/06 07:01:27;;;;;;;18.00;11.25;;;;;;;;;;5060893;28;20371;-81
2023/12/06 07:03:53;;;;;;;18.75;11.18;;;;;;;;;;5059972;28;20039;-81
2023/12/06 07:06:20;;;;;;;18.42;10.50;;;;;;;;;;5059386;28;20050;-81
2023/12/06 07:08:49;;;;;;;20.73;10.55;;;;;;;;;;5062955;28;20430;-81
2023/12/06 07:11:15;;;;;;;16.08;10.32;;;;;;;;;;5061324;28;20032;-81
2023/12/06 07:13:41;;;;;;;17.83;10.60;;;;;;;;;;5066435;28;20025;-81
2023/12/06 07:16:06;;;;;;;18.05;10.50;;;;;;;;;;5061973;28;20032;-81
2023/12/06 07:18:32;;;;;;;19.60;11.02;;;;;;;;;;5061100;28;20094;-81
2023/12/06 07:21:00;;;;;;;18.30;11.38;;;;;;;;;;5060283;28;20740;-81
2023/12/06 07:23:25;;;;;;;17.08;10.77;;;;;;;;;;5060769;28;20036;-80
2023/12/06 07:25:54;;;;;;;18.77;10.85;;;;;;;;;;5060735;28;20033;-81
2023/12/06 07:28:19;;;;;;;20.30;11.43;;;;;;;;;;5072682;28;20166;-81
2023/12/06 07:30:45;;;;;;;21.60;10.88;;;;;;;;;;5060246;28;20151;-81
2023/12/06 07:33:11;;;;;;;20.35;10.88;;;;;;;;;;5060233;28;20036;-81
2023/12/06 07:35:36;;;;;;;19.42;10.25;;;;;;;;;;5059914;28;20079;-81
2023/12/06 07:38:02;;;;;;;17.83;10.75;;;;;;;;;;5060474;28;20032;-81
2023/12/06 07:40:28;;;;;;;19.25;10.40;;;;;;;;;;5065335;28;20037;-81
2023/12/06 07:42:54;;;;;;;16.73;10.77;;;;;;;;;;5064503;28;20442;-81
2023/12/06 07:45:19;;;;;;;18.73;10.65;;;;;;;;;;5063464;28;20064;-81
2023/12/06 07:47:45;;;;;;;18.58;11.18;;;;;;;;;;5063131;28;20094;-81
2023/12/06 07:50:10;;;;;;;22.55;11.52;;;;;;;;;;5065383;28;20381;-81
2023/12/06 07:52:36;;;;;;;16.80;10.20;;;;;;;;;;5067054;28;20911;-81
2023/12/06 07:55:06;;;;;;;17.67;10.45;;;;;;;;;;5061983;28;20478;-81
2023/12/06 07:57:32;;;;;;;18.30;10.60;;;;;;;;;;5082988;28;20028;-81
2023/12/06 07:59:58;;;;;;;19.63;10.70;;;;;;;;;;5062252;28;20028;-81
2023/12/06 08:02:25;;;;;;;20.38;11.82;;;;;;;;;;5070355;28;20033;-81
2023/12/06 08:04:51;;;;;;;18.92;11.00;;;;;;;;;;5067300;28;20031;-81
2023/12/06 08:07:16;;;;;;;16.35;10.85;;;;;;;;;;5059187;28;20025;-80
2023/12/06 08:09:42;;;;;;;18.27;11.02;;;;;;;;;;5069762;28;20404;-81
2023/12/06 08:12:07;;;;;;;18.42;11.32;;;;;;;;;;5103918;28;20021;-81
2023/12/06 08:14:34;;;;;;;22.30;12.15;;;;;;;;;;5069164;28;20032;-81
2023/12/06 08:16:59;;;;;;;17.88;11.55;;;;;;;;;;5062393;28;20028;-81
2023/12/06 08:19:26;;;;;;;18.27;12.07;;;;;;;;;;5061822;28;20036;-81
2023/12/06 08:21:51;;;;;;;19.77;11.80;;;;;;;;;;5070812;28;20029;-81
2023/12/06 08:24:17;;;;;;;19.40;11.23;;;;;;;;;;5061862;28;20048;-81
2023/12/06 08:26:42;;;;;;;18.20;10.65;;;;;;;;;;5062160;28;20016;-85
2023/12/06 08:29:08;;;;;;;19.15;11.57;;;;;;;;;;5069062;28;20106;-85
2023/12/06 08:31:33;;;;;;;17.15;11.30;;;;;;;;;;5070326;28;20039;-85
2023/12/06 08:33:59;;;;;;;17.38;10.90;;;;;;;;;;5068139;28;20039;-84
2023/12/06 08:36:25;;;;;;;17.63;10.90;;;;;;;;;;5066767;28;20031;-84
2023/12/06 08:38:50;;;;;;;18.90;10.82;;;;;;;;;;5065901;28;20032;-84
2023/12/06 08:41:15;;;;;;;19.95;11.57;;;;;;;;;;5062616;28;20112;-84
2023/12/06 08:43:41;;;;;;;19.05;10.50;;;;;;;;;;5067862;28;20048;-83
2023/12/06 08:46:07;;;;;;;18.35;10.65;;;;;;;;;;5063211;28;20020;-85
2023/12/06 08:48:33;;;;;;;18.35;11.02;;;;;;;;;;5069639;28;20020;-84
2023/12/06 08:50:59;;;;;;;17.10;10.85;;;;;;;;;;5065654;28;20441;-84
2023/12/06 08:53:24;;;;;;;20.33;11.55;;;;;;;;;;5065069;28;20028;-85
2023/12/06 08:55:50;;;;;;;18.88;11.43;;;;;;;;;;5060073;28;20029;-84
2023/12/06 08:58:17;;;;;;;21.88;11.95;;;;;;;;;;5071844;28;20099;-84
2023/12/06 09:00:43;;;;;;;19.02;11.23;;;;;;;;;;5060285;28;20094;-84
2023/12/06 09:03:09;;;;;;;20.27;11.82;;;;;;;;;;5066858;28;20028;-84
2023/12/06 09:05:34;;;;;;;19.83;12.02;;;;;;;;;;5061542;28;20024;-85
2023/12/06 09:08:00;;;;;;;19.48;11.55;;;;;;;;;;5066759;28;20371;-85
2023/12/06 09:10:26;;;;;;;18.90;11.63;;;;;;;;;;5070707;28;20031;-85
2023/12/06 09:12:52;;;;;;;23.80;12.23;;;;;;;;;;5066478;28;20036;-85
2023/12/06 09:15:18;;;;;;;19.17;11.52;;;;;;;;;;5069399;28;20090;-84
2023/12/06 09:17:44;;;;;;;18.27;10.75;;;;;;;;;;5068110;28;20108;-84
2023/12/06 09:20:10;;;;;;;19.83;11.63;;;;;;;;;;5068731;28;20468;-85
2023/12/06 09:22:36;;;;;;;20.40;11.20;;;;;;;;;;5066628;28;20481;-85
2023/12/06 09:25:04;;;;;;;21.55;11.75;;;;;;;;;;5061232;28;20044;-84
2023/12/06 09:27:31;;;;;;;18.85;11.20;;;;;;;;;;5066128;28;20469;-84
2023/12/06 09:29:56;;;;;;;19.50;12.10;;;;;;;;;;5062996;28;20059;-85
2023/12/06 09:32:23;;;;;;;19.58;11.98;;;;;;;;;;5064461;28;20064;-84
2023/12/06 09:34:48;;;;;;;21.60;11.70;;;;;;;;;;5064531;28;20432;-85
2023/12/06 09:37:14;;;;;;;21.30;11.95;;;;;;;;;;5071037;28;20085;-85
2023/12/06 09:39:40;;;;;;;17.27;11.18;;;;;;;;;;5071600;28;20024;-85
2023/12/06 09:42:06;;;;;;;18.27;11.35;;;;;;;;;;5070205;28;20028;-85
2023/12/06 09:44:32;;;;;;;19.88;11.27;;;;;;;;;;5061118;28;20056;-85
2023/12/06 09:46:59;;;;;;;18.63;11.80;;;;;;;;;;5082043;28;20157;-84
2023/12/06 09:49:24;;;;;;;20.27;11.77;;;;;;;;;;5066451;28;20020;-85
2023/12/06 09:51:50;;;;;;;21.63;10.85;;;;;;;;;;5065481;28;20379;-85
2023/12/06 09:54:15;;;;;;;20.73;11.55;;;;;;;;;;5067176;28;20035;-84
2023/12/06 09:56:41;;;;;;;19.35;11.85;;;;;;;;;;5064622;28;20021;-84
2023/12/06 09:59:06;;;;;;;18.60;11.68;;;;;;;;;;5064928;28;20139;-84
2023/12/06 10:01:32;;;;;;;18.73;11.05;;;;;;;;;;5070166;28;20032;-84
2023/12/06 10:03:57;;;;;;;18.23;10.57;;;;;;;;;;5071633;28;20020;-84
2023/12/06 10:06:23;;;;;;;18.05;10.88;;;;;;;;;;5070258;28;20067;-84
2023/12/06 10:08:53;;;;;;;18.88;10.77;;;;;;;;;;5069212;28;20069;-84
2023/12/06 10:11:23;;;;;;;19.00;11.52;;;;;;;;;;5068767;28;20544;-84
2023/12/06 10:13:49;;;;;;;18.65;10.25;;;;;;;;;;5069090;28;20029;-85
2023/12/06 10:16:15;;;;;;;21.15;11.10;;;;;;;;;;5068382;28;20055;-85
2023/12/06 10:18:41;;;;;;;20.15;10.77;;;;;;;;;;5073529;28;20024;-84
2023/12/06 10:21:07;;;;;;;18.67;10.95;;;;;;;;;;5104560;27;20036;-85
2023/12/06 10:23:33;;;;;;;17.48;10.20;;;;;;;;;;5074433;28;20024;-85
2023/12/06 10:25:58;;;;;;;21.50;9.82;;;;;;;;;;5071002;28;20481;-84
2023/12/06 10:28:24;;;;;;;17.70;10.63;;;;;;;;;;5072844;28;20555;-85
2023/12/06 10:31:03;;;;;;;15.52;9.90;;;;;;;;;;5070807;28;20029;-85
2023/12/06 10:33:32;;;;;;;16.85;10.43;;;;;;;;;;5086102;28;20494;-85
2023/12/06 10:36:00;;;;;;;18.25;10.63;;;;;;;;;;5067957;28;20100;-85
2023/12/06 10:38:27;;;;;;;18.80;10.73;;;;;;;;;;5071173;28;20025;-85
2023/12/06 10:40:53;;;;;;;16.30;10.93;;;;;;;;;;5067613;28;20032;-85
2023/12/06 10:43:20;;;;;;;19.70;10.75;;;;;;;;;;5069103;28;20086;-85
2023/12/06 10:45:48;;;;;;;17.15;10.45;;;;;;;;;;5068485;28;20071;-85
2023/12/06 10:48:15;;;;;;;15.88;10.15;;;;;;;;;;5072078;28;20082;-84
2023/12/06 10:50:43;;;;;;;18.63;10.98;;;;;;;;;;5069757;28;20024;-85
2023/12/06 10:53:13;;;;;;;17.58;10.63;;;;;;;;;;5066083;28;20036;-85
2023/12/06 10:55:40;;;;;;;18.10;10.10;;;;;;;;;;5070351;28;20093;-84
2023/12/06 10:58:07;;;;;;;16.75;10.05;;;;;;;;;;5068253;28;20028;-85
2023/12/06 11:00:33;;;;;;;20.80;10.23;;;;;;;;;;5063489;28;20025;-85
2023/12/06 11:02:59;;;;;;;18.25;10.75;;;;;;;;;;5067872;28;20807;-85
2023/12/06 11:05:29;;;;;;;23.20;10.07;;;;;;;;;;5068732;28;20032;-85
2023/12/06 11:08:23;;;;;;;16.48;10.68;;;;;;;;;;5066251;28;20031;-85
2023/12/06 11:10:51;;;;;;;19.23;10.00;;;;;;;;;;5073067;28;20493;-85
2023/12/06 11:13:33;;;;;;;15.18;9.35;;;;;;;;;;5067661;28;20280;-85
2023/12/06 11:15:58;;;;;;;18.77;9.80;;;;;;;;;;5067717;28;20111;-85
2023/12/06 11:18:27;;;;;;;18.08;9.98;;;;;;;;;;5068922;28;20055;-85
2023/12/06 11:20:53;;;;;;;16.17;10.13;;;;;;;;;;5067312;28;20035;-84
2023/12/06 11:23:21;;;;;;;19.50;10.40;;;;;;;;;;5064395;28;20039;-84
2023/12/06 11:25:49;;;;;;;17.52;10.27;;;;;;;;;;5074347;28;20048;-84
2023/12/06 11:28:20;;;;;;;17.20;10.30;;;;;;;;;;5067208;28;20056;-80
2023/12/06 11:30:55;;;;;;;19.10;10.50;;;;;;;;;;5072729;28;20029;-81
2023/12/06 11:33:21;;;;;;;16.80;9.38;;;;;;;;;;5067195;28;20036;-80
2023/12/06 11:35:54;;;;;;;19.13;9.75;;;;;;;;;;5069952;28;20025;-80
2023/12/06 11:38:35;;;;;;;19.08;9.20;;;;;;;;;;5066408;28;20032;-80
2023/12/06 11:41:02;;;;;;;16.65;9.88;;;;;;;;;;5072433;28;20028;-80
2023/12/06 11:43:39;;;;;;;17.83;9.73;;;;;;;;;;5072521;28;20489;-80
2023/12/06 11:46:07;;;;;;;16.83;9.63;;;;;;;;;;5070607;28;20023;-80
2023/12/06 11:49:02;;;;;;;20.88;9.50;;;;;;;;;;5071285;28;20025;-81
2023/12/06 11:51:29;;;;;;;19.40;9.18;;;;;;;;;;5052377;28;20510;-80
2023/12/06 11:53:55;;;;;;;17.20;10.30;;;;;;;;;;5064503;28;20032;-81
2023/12/06 11:56:25;;;;;;;17.40;9.32;;;;;;;;;;5065215;28;20021;-81
2023/12/06 11:58:51;;;;;;;16.73;9.20;;;;;;;;;;5070383;28;20114;-82
2023/12/06 12:01:22;;;;;;;17.40;9.23;;;;;;;;;;5066250;28;20051;-84
2023/12/06 12:03:49;;;;;;;18.52;8.85;;;;;;;;;;5064216;28;20056;-84
2023/12/06 12:06:16;;;;;;;16.77;8.18;;;;;;;;;;5064706;28;20020;-83
2023/12/06 12:08:42;;;;;;;14.85;7.57;;;;;;;;;;5065482;28;20032;-84
2023/12/06 12:11:09;;;;;;;14.73;8.63;;;;;;;;;;5066283;28;20024;-84
2023/12/06 12:13:39;;;;;;;14.77;8.48;;;;;;;;;;5063134;28;20100;-84
2023/12/06 12:16:06;;;;;;;15.45;8.63;;;;;;;;;;5066407;28;20029;-84
2023/12/06 12:18:31;;;;;;;14.38;8.65;;;;;;;;;;5072011;28;20028;-84
2023/12/06 12:21:00;;;;;;;15.75;8.98;;;;;;;;;;5065795;28;20035;-84
2023/12/06 12:23:28;;;;;;;17.60;8.68;;;;;;;;;;5064404;28;20039;-84
2023/12/06 12:25:53;;;;;;;17.75;8.50;;;;;;;;;;5062418;28;20023;-83
2023/12/06 12:28:20;;;;;;;13.68;8.20;;;;;;;;;;5067092;28;20020;-84
2023/12/06 12:30:48;;;;;;;15.80;8.13;;;;;;;;;;5060638;28;20036;-84
2023/12/06 12:33:20;;;;;;;13.80;7.93;;;;;;;;;;5061245;28;20033;-84
2023/12/06 12:35:46;;;;;;;13.05;7.80;;;;;;;;;;5058345;28;20040;-84
2023/12/06 12:38:12;;;;;;;11.45;7.13;;;;;;;;;;5072289;28;20295;-84
2023/12/06 12:40:41;;;;;;;12.88;7.90;;;;;;;;;;5066721;28;20024;-84
2023/12/06 12:43:07;;;;;;;12.50;7.32;;;;;;;;;;5059953;28;20024;-84
2023/12/06 12:45:35;;;;;;;12.75;7.20;;;;;;;;;;5064473;28;20402;-84
2023/12/06 12:48:01;;;;;;;11.38;6.75;;;;;;;;;;5057216;28;20545;-84
2023/12/06 12:50:37;;;;;;;10.43;5.95;;;;;;;;;;5060814;28;20195;-84
2023/12/06 12:53:03;;;;;;;9.32;5.43;;;;;;;;;;5063132;28;20032;-84
2023/12/06 12:55:31;;;;;;;12.35;5.45;;;;;;;;;;5062844;28;20801;-83
2023/12/06 12:58:02;;;;;;;7.15;4.35;;;;;;;;;;5077102;28;20036;-84
2023/12/06 13:00:31;;;;;;;8.77;4.88;;;;;;;;;;5056912;28;20379;-83
2023/12/06 13:03:00;;;;;;;8.75;4.85;;;;;;;;;;5058633;28;20119;-84
2023/12/06 13:05:27;;;;;;;11.05;5.15;;;;;;;;;;5056086;28;20039;-84
2023/12/06 13:07:59;;;;;;;9.18;5.40;;;;;;;;;;5059048;28;20023;-83
2023/12/06 13:10:29;;;;;;;6.70;4.15;;;;;;;;;;5067548;28;20352;-84
2023/12/06 13:12:58;;;;;;;6.45;3.60;;;;;;;;;;5063428;28;20307;-84
2023/12/06 13:15:32;;;;;;;6.05;3.42;;;;;;;;;;5060967;28;20482;-84
2023/12/06 13:17:57;;;;;;;6.32;3.72;;;;;;;;;;5064596;28;20040;-84
2023/12/06 13:20:25;;;;;;;6.78;4.03;;;;;;;;;;5057804;28;20032;-83
2023/12/06 13:22:50;;;;;;;6.43;4.20;;;;;;;;;;5061863;28;20044;-83
2023/12/06 13:25:16;;;;;;;7.28;4.28;;;;;;;;;;5053270;28;20125;-84
2023/12/06 13:27:42;;;;;;;10.75;4.40;;;;;;;;;;5061853;28;20094;-84
2023/12/06 13:30:08;;;;;;;8.43;3.95;;;;;;;;;;5059529;28;20043;-83
2023/12/06 13:32:33;;;;;;;9.25;4.53;;;;;;;;;;5057115;28;20394;-84
2023/12/06 13:34:58;;;;;;;9.20;4.20;;;;;;;;;;5055007;28;20041;-84
2023/12/06 13:37:24;;;;;;;7.50;4.30;;;;;;;;;;5060263;28;20438;-83
2023/12/06 13:39:51;;;;;;;6.57;4.30;;;;;;;;;;5063693;28;20051;-84
2023/12/06 13:42:17;;;;;;;7.70;4.72;;;;;;;;;;5055835;28;20020;-84
2023/12/06 13:44:47;;;;;;;10.00;4.63;;;;;;;;;;5057627;28;20028;-84
2023/12/06 13:47:12;;;;;;;9.00;4.68;;;;;;;;;;5061689;28;20141;-80
2023/12/06 13:49:38;;;;;;;8.20;4.40;;;;;;;;;;5053870;28;20040;-80
2023/12/06 13:52:06;;;;;;;7.72;4.38;;;;;;;;;;5064600;28;20510;-79
2023/12/06 13:54:34;;;;;;;6.97;4.60;;;;;;;;;;5065010;28;20111;-79
2023/12/06 13:57:00;;;;;;;9.40;4.57;;;;;;;;;;5059624;28;20035;-80
2023/12/06 13:59:26;;;;;;;6.93;3.55;;;;;;;;;;5061042;28;20029;-79
2023/12/06 14:01:54;;;;;;;6.35;3.42;;;;;;;;;;5069048;28;20056;-79
2023/12/06 14:04:19;;;;;;;6.57;3.60;;;;;;;;;;5069368;28;20060;-79
2023/12/06 14:06:46;;;;;;;7.40;4.15;;;;;;;;;;5059873;28;20043;-79
2023/12/06 14:09:15;;;;;;;6.40;3.60;;;;;;;;;;5065790;28;20049;-80
2023/12/06 14:11:41;;;;;;;7.82;3.47;;;;;;;;;;5062766;28;20100;-79
2023/12/06 14:14:06;;;;;;;5.40;3.10;;;;;;;;;;5060356;28;20473;-80
2023/12/06 14:16:32;;;;;;;6.90;3.38;;;;;;;;;;5063974;28;20071;-80